Time;durP1;ratioP1;P1;durP2;ratioP2;P2;SDS_P1;SDS_P2;PMS_P1;PMS_P2;Temp;Humidity;BMP_temperature;BMP_pressure;BME280_temperature;BME280_humidity;BME280_pressure;Samples;Min_cycle;Max_cycle;Signal;HPM_P1;HPM_P2
2023/02/13 00:01:23;;;;;;;42.50;19.75;;;;;;;6.72;100.00;103440.59;5090175;28;20678;-71
2023/02/13 00:03:48;;;;;;;50.67;19.73;;;;;;;6.71;100.00;103439.66;5094004;28;20509;-71
2023/02/13 00:06:14;;;;;;;44.17;20.60;;;;;;;6.75;100.00;103440.81;5091074;28;20068;-71
2023/02/13 00:08:39;;;;;;;46.60;19.92;;;;;;;6.73;100.00;103447.66;5087329;28;20103;-71
2023/02/13 00:11:05;;;;;;;47.03;21.30;;;;;;;6.77;100.00;103446.16;5081082;28;20024;-70
2023/02/13 00:13:32;;;;;;;48.15;22.27;;;;;;;6.80;100.00;103444.69;5085181;28;20038;-71
2023/02/13 00:15:59;;;;;;;40.67;20.25;;;;;;;6.80;100.00;103449.03;5094842;28;20019;-70
2023/02/13 00:18:26;;;;;;;46.70;21.58;;;;;;;6.74;100.00;103450.38;5098018;28;20521;-69
2023/02/13 00:21:04;;;;;;;44.05;20.60;;;;;;;6.75;100.00;103446.97;5084279;28;20025;-71
2023/02/13 00:23:31;;;;;;;40.15;20.15;;;;;;;6.73;100.00;103438.09;5085015;28;20493;-70
2023/02/13 00:25:58;;;;;;;40.80;18.70;;;;;;;6.73;100.00;103442.41;5080431;28;20016;-71
2023/02/13 00:28:24;;;;;;;44.33;21.63;;;;;;;6.74;100.00;103436.38;5081177;28;20744;-70
2023/02/13 00:30:49;;;;;;;47.13;20.77;;;;;;;6.73;100.00;103443.31;5085620;28;20026;-72
2023/02/13 00:33:15;;;;;;;39.78;19.40;;;;;;;6.73;100.00;103451.16;5091331;28;20023;-70
2023/02/13 00:35:40;;;;;;;45.28;20.33;;;;;;;6.74;100.00;103441.59;5099442;28;20463;-70
2023/02/13 00:38:05;;;;;;;45.63;21.27;;;;;;;6.75;100.00;103440.81;5089250;28;20035;-70
2023/02/13 00:40:31;;;;;;;47.50;18.88;;;;;;;6.73;100.00;103443.31;5087548;28;20141;-71
2023/02/13 00:42:56;;;;;;;49.35;20.25;;;;;;;6.76;100.00;103437.41;5091079;28;20082;-71
2023/02/13 00:45:24;;;;;;;40.28;18.73;;;;;;;6.78;100.00;103437.50;5087804;28;20028;-70
2023/02/13 00:47:49;;;;;;;43.05;20.10;;;;;;;6.73;100.00;103431.94;5073460;28;20028;-70
2023/02/13 00:50:15;;;;;;;49.63;21.15;;;;;;;6.66;100.00;103435.81;5084852;28;20103;-69
2023/02/13 00:52:40;;;;;;;46.35;20.35;;;;;;;6.69;100.00;103436.03;5092483;28;20024;-70
2023/02/13 00:55:05;;;;;;;41.08;18.30;;;;;;;6.74;100.00;103439.91;5075653;28;20055;-71
2023/02/13 00:57:31;;;;;;;42.03;19.77;;;;;;;6.69;100.00;103430.81;5091206;28;20043;-70
2023/02/13 00:59:57;;;;;;;36.85;18.48;;;;;;;6.71;100.00;103429.19;5086070;28;20448;-70
2023/02/13 01:02:22;;;;;;;42.83;20.75;;;;;;;6.75;100.00;103426.03;5092385;28;20490;-71
2023/02/13 01:04:48;;;;;;;44.47;21.50;;;;;;;6.69;100.00;103425.56;5079780;28;20043;-71
2023/02/13 01:07:13;;;;;;;44.67;21.10;;;;;;;6.74;100.00;103415.44;5073133;28;20031;-71
2023/02/13 01:09:39;;;;;;;41.00;20.88;;;;;;;6.69;100.00;103412.50;5079813;28;20069;-70
2023/02/13 01:12:04;;;;;;;43.35;21.20;;;;;;;6.68;100.00;103410.66;5074542;28;20044;-71
2023/02/13 01:14:30;;;;;;;40.97;20.00;;;;;;;6.66;100.00;103417.50;5092715;28;20031;-71
2023/02/13 01:16:55;;;;;;;43.60;21.13;;;;;;;6.69;100.00;103414.22;5073027;28;20081;-72
2023/02/13 01:19:21;;;;;;;46.85;22.80;;;;;;;6.68;100.00;103418.50;5075687;28;20048;-70
2023/02/13 01:21:46;;;;;;;42.05;21.00;;;;;;;6.69;100.00;103417.72;5089723;28;20406;-71
2023/02/13 01:24:11;;;;;;;48.25;21.48;;;;;;;6.71;100.00;103417.81;5107379;28;20115;-71
2023/02/13 01:26:37;;;;;;;45.72;19.48;;;;;;;6.71;100.00;103413.50;5080346;28;20033;-71
2023/02/13 01:29:02;;;;;;;42.30;20.35;;;;;;;6.70;100.00;103411.69;5088928;28;20020;-70
2023/02/13 01:31:28;;;;;;;44.58;20.77;;;;;;;6.70;100.00;103408.16;5087111;28;20534;-72
2023/02/13 01:33:57;;;;;;;43.50;21.25;;;;;;;6.75;100.00;103404.16;5092182;28;20047;-71
2023/02/13 01:36:22;;;;;;;42.35;21.15;;;;;;;6.71;100.00;103400.41;5101244;28;20119;-72
2023/02/13 01:38:51;;;;;;;43.92;21.23;;;;;;;6.71;100.00;103407.38;5099614;28;20103;-71
2023/02/13 01:41:16;;;;;;;46.50;20.60;;;;;;;6.68;100.00;103408.03;5092242;28;20138;-72
2023/02/13 01:43:52;;;;;;;43.25;20.25;;;;;;;6.67;100.00;103403.59;5084025;28;20051;-71
2023/02/13 01:46:38;;;;;;;46.65;20.45;;;;;;;6.78;100.00;103406.09;5088055;28;20028;-69
2023/02/13 01:49:23;;;;;;;42.10;20.00;;;;;;;6.72;100.00;103404.84;5094129;28;20154;-70
2023/02/13 01:51:53;;;;;;;47.17;20.90;;;;;;;6.64;100.00;103403.38;5082925;28;20035;-70
2023/02/13 01:54:29;;;;;;;46.08;21.55;;;;;;;6.62;100.00;103399.75;5096375;28;20463;-72
2023/02/13 01:56:59;;;;;;;50.45;22.02;;;;;;;6.63;100.00;103398.94;5080529;28;20028;-71
2023/02/13 01:59:33;;;;;;;47.63;21.77;;;;;;;6.63;100.00;103414.63;5094968;28;20112;-71
2023/02/13 02:01:59;;;;;;;45.42;20.38;;;;;;;6.63;100.00;103401.56;5081477;28;20073;-71
2023/02/13 02:04:31;;;;;;;43.17;21.02;;;;;;;6.65;100.00;103402.59;5076121;28;20040;-70
2023/02/13 02:07:05;;;;;;;46.25;20.67;;;;;;;6.67;100.00;103400.97;5095449;28;20468;-70
2023/02/13 02:09:39;;;;;;;45.63;21.02;;;;;;;6.61;100.00;103404.88;5077531;28;20024;-71
2023/02/13 02:12:19;;;;;;;49.85;20.88;;;;;;;6.62;100.00;103411.91;5086061;28;20020;-71
2023/02/13 02:14:45;;;;;;;46.92;20.98;;;;;;;6.61;100.00;103408.41;5085149;28;20539;-71
2023/02/13 02:17:10;;;;;;;44.33;21.80;;;;;;;6.60;100.00;103409.19;5077731;28;20059;-70
2023/02/13 02:19:51;;;;;;;47.47;20.60;;;;;;;6.58;100.00;103396.00;5090951;28;20555;-72
2023/02/13 02:22:44;;;;;;;43.28;21.52;;;;;;;6.62;100.00;103402.38;5082201;28;20028;-70
2023/02/13 02:25:12;;;;;;;43.83;21.58;;;;;;;6.61;100.00;103403.16;5089595;28;20406;-71
2023/02/13 02:27:52;;;;;;;50.63;22.50;;;;;;;6.62;100.00;103409.28;5094079;28;20043;-71
2023/02/13 02:30:48;;;;;;;51.72;22.23;;;;;;;6.61;100.00;103397.03;5090222;28;20047;-72
2023/02/13 02:33:36;;;;;;;43.10;20.08;;;;;;;6.62;100.00;103399.75;5085244;28;20037;-70
2023/02/13 02:36:32;;;;;;;47.40;22.35;;;;;;;6.65;100.00;103394.75;5081067;28;20020;-70
2023/02/13 02:39:24;;;;;;;42.38;20.50;;;;;;;6.65;100.00;103397.34;5091940;28;20372;-72
2023/02/13 02:42:08;;;;;;;43.17;20.75;;;;;;;6.70;100.00;103389.84;5096116;28;20019;-70
2023/02/13 02:44:48;;;;;;;41.90;20.20;;;;;;;6.61;100.00;103392.69;5088967;28;20654;-70
2023/02/13 02:50:30;;;;;;;43.25;20.10;;;;;;;6.58;100.00;103382.00;5099063;28;20623;-72
2023/02/13 02:53:25;;;;;;;45.17;21.88;;;;;;;6.56;100.00;103380.97;5101965;28;20164;-71
2023/02/13 02:56:18;;;;;;;41.90;21.05;;;;;;;6.54;100.00;103379.97;5084537;28;20059;-70
2023/02/13 03:07:18;;;;;;;48.38;21.05;;;;;;;6.54;100.00;103382.59;5077682;28;20052;-72
2023/02/13 03:15:29;;;;;;;42.65;20.33;;;;;;;6.54;100.00;103378.25;5089093;28;20120;-72
2023/02/13 03:23:53;;;;;;;43.47;21.38;;;;;;;6.62;100.00;103373.59;5082050;28;20048;-70
2023/02/13 03:26:44;;;;;;;46.53;21.45;;;;;;;6.57;100.00;103372.34;5082385;28;20044;-69
2023/02/13 03:32:34;;;;;;;48.83;20.83;;;;;;;6.61;100.00;103373.50;5083436;28;20086;-72
2023/02/13 03:38:30;;;;;;;44.45;21.00;;;;;;;6.53;100.00;103370.28;5080190;28;20364;-71
2023/02/13 03:41:20;;;;;;;45.60;20.92;;;;;;;6.48;100.00;103366.41;5096358;28;20030;-71
2023/02/13 03:43:59;;;;;;;44.45;21.05;;;;;;;6.52;100.00;103368.47;5093304;28;20484;-71
2023/02/13 03:46:27;;;;;;;50.42;21.08;;;;;;;6.51;100.00;103356.19;5079506;28;20024;-70
2023/02/13 03:51:46;;;;;;;45.72;21.58;;;;;;;6.50;100.00;103354.38;5088695;28;20096;-70
2023/02/13 04:00:06;;;;;;;45.28;20.55;;;;;;;6.49;100.00;103355.19;5081017;28;20034;-71
2023/02/13 04:02:37;;;;;;;50.30;22.45;;;;;;;6.48;100.00;103351.63;5072328;28;20427;-71
2023/02/13 04:05:20;;;;;;;44.50;21.52;;;;;;;6.50;100.00;103349.16;5078587;28;20080;-71
2023/02/13 04:07:45;;;;;;;46.92;23.17;;;;;;;6.51;100.00;103350.94;5094028;28;20031;-71
2023/02/13 04:10:14;;;;;;;46.55;21.30;;;;;;;6.47;100.00;103346.28;5086614;28;20084;-70
2023/02/13 04:13:02;;;;;;;46.90;20.42;;;;;;;6.52;100.00;103347.53;5091053;28;20019;-70
2023/02/13 04:15:35;;;;;;;49.05;21.85;;;;;;;6.46;100.00;103347.06;5093319;28;20036;-70
2023/02/13 04:18:23;;;;;;;48.97;21.20;;;;;;;6.49;100.00;103347.31;5093818;28;20020;-72
2023/02/13 04:20:49;;;;;;;46.70;21.02;;;;;;;6.41;100.00;103345.03;5081519;28;20475;-71
2023/02/13 04:23:14;;;;;;;44.60;20.67;;;;;;;6.46;100.00;103352.31;5091894;28;20077;-70
2023/02/13 04:25:45;;;;;;;42.63;20.42;;;;;;;6.50;100.00;103349.16;5086275;28;20032;-71
2023/02/13 04:28:12;;;;;;;48.70;20.73;;;;;;;6.49;100.00;103342.09;5083077;28;20055;-70
2023/02/13 04:30:38;;;;;;;44.30;19.85;;;;;;;6.50;100.00;103349.16;5088660;28;20027;-71
2023/02/13 04:33:03;;;;;;;46.97;21.35;;;;;;;6.46;100.00;103347.06;5093114;28;20034;-71
2023/02/13 04:35:29;;;;;;;48.30;22.38;;;;;;;6.49;100.00;103357.78;5079525;28;20364;-70
2023/02/13 04:37:54;;;;;;;46.45;19.38;;;;;;;6.49;100.00;103353.44;5083211;28;20418;-71
2023/02/13 04:40:19;;;;;;;43.35;19.40;;;;;;;6.53;100.00;103351.97;5076889;28;20025;-70
2023/02/13 04:42:47;;;;;;;48.47;20.63;;;;;;;6.50;100.00;103351.78;5087332;28;20364;-71
2023/02/13 04:45:13;;;;;;;46.30;22.10;;;;;;;6.54;100.00;103351.19;5083395;28;20027;-71
2023/02/13 04:47:38;;;;;;;47.70;22.40;;;;;;;6.47;100.00;103352.44;5088538;28;20028;-71
2023/02/13 04:50:04;;;;;;;43.97;22.67;;;;;;;6.48;100.00;103350.72;5090417;28;20027;-71
2023/02/13 04:52:30;;;;;;;42.10;20.25;;;;;;;6.47;100.00;103348.91;5092461;28;20081;-71
2023/02/13 04:54:55;;;;;;;41.97;19.98;;;;;;;6.46;100.00;103344.47;5093482;28;20509;-69
2023/02/13 04:57:20;;;;;;;42.10;19.58;;;;;;;6.48;100.00;103349.00;5076395;28;20483;-69
2023/02/13 04:59:48;;;;;;;45.30;20.88;;;;;;;6.46;100.00;103342.78;5072686;28;20504;-71
2023/02/13 05:02:14;;;;;;;43.85;20.38;;;;;;;6.48;100.00;103345.50;5078129;28;20028;-71
2023/02/13 05:04:39;;;;;;;42.75;21.05;;;;;;;6.48;100.00;103340.25;5084724;28;20608;-71
2023/02/13 05:07:05;;;;;;;45.00;20.35;;;;;;;6.47;100.00;103338.44;5075878;28;20039;-70
2023/02/13 05:09:30;;;;;;;45.33;20.08;;;;;;;6.47;100.00;103330.59;5081775;28;20040;-70
2023/02/13 05:11:56;;;;;;;43.95;19.00;;;;;;;6.45;100.00;103335.72;5086096;28;20035;-71
2023/02/13 05:14:21;;;;;;;45.90;20.20;;;;;;;6.43;100.00;103332.09;5086856;28;20032;-71
2023/02/13 05:16:48;;;;;;;46.88;19.67;;;;;;;6.46;100.00;103334.94;5088804;28;20055;-71
2023/02/13 05:19:14;;;;;;;41.60;19.50;;;;;;;6.49;100.00;103331.63;5088406;28;20457;-72
2023/02/13 05:24:23;;;;;;;41.90;19.08;;;;;;;6.49;100.00;103343.00;5072716;28;20040;-71
2023/02/13 05:26:49;;;;;;;39.80;19.13;;;;;;;6.49;100.00;103334.25;5083273;28;20020;-70
2023/02/13 05:29:17;;;;;;;44.92;18.67;;;;;;;6.54;100.00;103335.50;5092455;28;20024;-70
2023/02/13 05:31:43;;;;;;;45.17;20.13;;;;;;;6.52;100.00;103335.34;5084156;28;20023;-71
2023/02/13 05:34:08;;;;;;;42.70;20.38;;;;;;;6.49;100.00;103331.63;5096159;28;20023;-71
2023/02/13 05:36:34;;;;;;;36.42;18.08;;;;;;;6.50;100.00;103329.13;5079875;28;20016;-70
2023/02/13 05:38:59;;;;;;;42.53;19.30;;;;;;;6.51;100.00;103327.41;5091105;28;20361;-71
2023/02/13 05:41:25;;;;;;;44.17;19.17;;;;;;;6.49;100.00;103343.00;5087399;28;20543;-71
2023/02/13 05:43:50;;;;;;;44.88;18.38;;;;;;;6.51;100.00;103340.47;5087618;28;20403;-70
2023/02/13 05:46:15;;;;;;;46.97;19.42;;;;;;;6.52;100.00;103332.75;5089090;28;20114;-71
2023/02/13 05:48:41;;;;;;;41.47;19.42;;;;;;;6.52;100.00;103337.06;5088207;28;20034;-71
2023/02/13 05:51:09;;;;;;;44.50;19.85;;;;;;;6.53;100.00;103342.41;5088100;28;20024;-71
2023/02/13 05:53:35;;;;;;;39.92;18.45;;;;;;;6.51;100.00;103344.03;5086936;28;20031;-72
2023/02/13 05:56:04;;;;;;;49.75;18.75;;;;;;;6.49;100.00;103347.31;5088861;28;20414;-72
2023/02/13 05:58:30;;;;;;;41.05;17.67;;;;;;;6.49;100.00;103343.00;5088331;28;20443;-70
2023/02/13 06:00:57;;;;;;;45.70;18.95;;;;;;;6.49;100.00;103349.94;5090537;28;20479;-70
2023/02/13 06:03:27;;;;;;;39.95;17.92;;;;;;;6.49;100.00;103343.00;5086805;28;20437;-71
2023/02/13 06:05:53;;;;;;;42.08;18.45;;;;;;;6.45;100.00;103335.72;5088588;28;20047;-71
2023/02/13 06:08:19;;;;;;;39.58;17.20;;;;;;;6.49;100.00;103336.88;5083468;28;20082;-71
2023/02/13 06:10:46;;;;;;;41.55;17.65;;;;;;;6.46;100.00;103341.84;5083267;28;20752;-70
2023/02/13 06:13:11;;;;;;;39.50;17.92;;;;;;;6.46;100.00;103336.63;5082254;28;20377;-71
2023/02/13 06:15:37;;;;;;;47.08;19.23;;;;;;;6.41;100.00;103334.56;5093682;28;20031;-70
2023/02/13 06:18:02;;;;;;;41.58;18.48;;;;;;;6.45;100.00;103326.97;5090966;28;20026;-70
2023/02/13 06:20:28;;;;;;;43.72;18.27;;;;;;;6.49;100.00;103329.00;5080345;28;20019;-71
2023/02/13 06:22:55;;;;;;;44.72;18.25;;;;;;;6.41;100.00;103321.50;5087683;28;20043;-71
2023/02/13 06:25:21;;;;;;;41.95;18.17;;;;;;;6.41;100.00;103318.88;5093390;28;20050;-70
2023/02/13 06:27:47;;;;;;;40.72;18.23;;;;;;;6.45;100.00;103321.75;5090736;28;20016;-71
2023/02/13 06:30:14;;;;;;;44.53;19.65;;;;;;;6.47;100.00;103317.50;5088398;28;20090;-72
2023/02/13 06:32:39;;;;;;;39.63;17.60;;;;;;;6.48;100.00;103316.72;5086405;28;20035;-70
2023/02/13 06:35:05;;;;;;;42.15;17.92;;;;;;;6.47;100.00;103321.06;5090790;28;20503;-71
2023/02/13 06:37:31;;;;;;;42.40;18.05;;;;;;;6.44;100.00;103317.31;5086575;28;20468;-71
2023/02/13 06:39:59;;;;;;;47.10;18.92;;;;;;;6.44;100.00;103325.16;5085389;28;20069;-70
2023/02/13 06:42:24;;;;;;;41.20;18.67;;;;;;;6.47;100.00;103327.97;5086841;28;20112;-70
2023/02/13 06:44:49;;;;;;;41.83;17.75;;;;;;;6.44;100.00;103325.16;5090209;28;20472;-72
2023/02/13 06:47:15;;;;;;;40.33;18.45;;;;;;;6.42;100.00;103327.66;5092213;28;20072;-70
2023/02/13 06:49:41;;;;;;;44.72;18.45;;;;;;;6.44;100.00;103333.00;5090016;28;20031;-72
2023/02/13 06:52:06;;;;;;;46.55;18.60;;;;;;;6.41;100.00;103331.94;5090357;28;20028;-71
2023/02/13 06:54:32;;;;;;;44.00;17.83;;;;;;;6.44;100.00;103327.75;5092322;28;20028;-73
2023/02/13 06:56:57;;;;;;;44.10;18.42;;;;;;;6.43;100.00;103339.00;5090224;28;20044;-70
2023/02/13 06:59:22;;;;;;;40.67;18.98;;;;;;;6.42;100.00;103340.72;5087396;28;20126;-72
2023/02/13 07:01:48;;;;;;;47.35;18.70;;;;;;;6.41;100.00;103342.41;5078863;28;20021;-71
2023/02/13 07:04:13;;;;;;;47.63;20.83;;;;;;;6.41;100.00;103339.78;5102276;28;20448;-72
2023/02/13 07:06:38;;;;;;;43.28;19.90;;;;;;;6.42;100.00;103345.97;5088206;28;20021;-70
2023/02/13 07:09:04;;;;;;;43.55;19.95;;;;;;;6.40;100.00;103348.47;5091982;28;20066;-71
2023/02/13 07:11:30;;;;;;;48.60;18.60;;;;;;;6.41;100.00;103349.38;5085849;28;20099;-71
2023/02/13 07:13:55;;;;;;;42.17;19.27;;;;;;;6.41;100.00;103354.59;5088416;28;20515;-70
2023/02/13 07:16:21;;;;;;;46.83;18.98;;;;;;;6.43;100.00;103357.31;5084466;28;20031;-70
2023/02/13 07:18:46;;;;;;;46.08;20.25;;;;;;;6.41;100.00;103355.50;5087730;28;20016;-70
2023/02/13 07:21:12;;;;;;;47.05;18.95;;;;;;;6.44;100.00;103362.66;5087832;28;20067;-72
2023/02/13 07:23:37;;;;;;;41.50;19.10;;;;;;;6.44;100.00;103359.16;5086380;28;20474;-72
2023/02/13 07:26:03;;;;;;;45.47;20.33;;;;;;;6.45;100.00;103361.88;5085276;28;20028;-70
2023/02/13 07:28:29;;;;;;;42.35;17.63;;;;;;;6.45;100.00;103359.25;5090942;28;20027;-71
2023/02/13 07:31:02;;;;;;;38.97;18.42;;;;;;;6.48;100.00;103355.97;5084170;28;20063;-70
2023/02/13 07:33:27;;;;;;;41.57;18.17;;;;;;;6.50;100.00;103359.63;5086514;28;20031;-71
2023/02/13 07:35:53;;;;;;;44.63;19.10;;;;;;;6.53;100.00;103360.72;5089883;28;20028;-71
2023/02/13 07:38:21;;;;;;;41.75;18.67;;;;;;;6.57;100.00;103364.50;5085608;28;20025;-71
2023/02/13 07:40:46;;;;;;;47.20;18.60;;;;;;;6.58;100.00;103363.72;5091204;28;20498;-70
2023/02/13 07:43:12;;;;;;;37.55;17.75;;;;;;;6.61;100.00;103374.38;5090038;28;20028;-69
2023/02/13 07:45:37;;;;;;;48.75;18.38;;;;;;;6.63;100.00;103370.16;5094342;28;20112;-70
2023/02/13 07:48:03;;;;;;;48.17;20.33;;;;;;;6.66;100.00;103367.78;5094010;28;20022;-70
2023/02/13 07:50:28;;;;;;;43.95;19.55;;;;;;;6.69;100.00;103368.00;5091295;28;20491;-69
2023/02/13 07:52:54;;;;;;;41.60;18.67;;;;;;;6.68;100.00;103365.28;5089681;28;20051;-71
2023/02/13 07:55:20;;;;;;;43.10;18.77;;;;;;;6.67;100.00;103366.06;5092322;28;20027;-70
2023/02/13 07:57:48;;;;;;;46.20;20.35;;;;;;;6.70;100.00;103367.22;5093581;28;20387;-69
2023/02/13 08:00:14;;;;;;;44.58;20.55;;;;;;;6.74;100.00;103366.66;5094080;28;20039;-70
2023/02/13 08:02:40;;;;;;;46.88;20.00;;;;;;;6.74;100.00;103374.50;5094260;28;20099;-71
2023/02/13 08:05:06;;;;;;;40.85;18.30;;;;;;;6.79;100.00;103380.03;5099241;28;20135;-71
2023/02/13 08:07:32;;;;;;;48.30;21.38;;;;;;;6.82;100.00;103374.13;5097316;28;20032;-72
2023/02/13 08:12:45;;;;;;;47.78;19.10;;;;;;;6.94;100.00;103372.41;5093502;28;20058;-70
2023/02/13 08:15:15;;;;;;;49.60;21.65;;;;;;;6.99;100.00;103378.88;5104636;28;20100;-70
2023/02/13 08:17:43;;;;;;;48.78;21.13;;;;;;;7.01;100.00;103377.31;5088096;28;20063;-70
2023/02/13 08:20:15;;;;;;;41.90;18.95;;;;;;;7.08;100.00;103384.78;5097939;28;20019;-69
2023/02/13 08:22:40;;;;;;;42.28;19.50;;;;;;;7.05;100.00;103389.81;5094147;28;20028;-71
2023/02/13 08:25:06;;;;;;;49.63;20.50;;;;;;;7.09;100.00;103378.75;5093495;28;20077;-70
2023/02/13 08:27:34;;;;;;;49.33;20.42;;;;;;;7.13;100.00;103376.34;5091070;28;20651;-70
2023/02/13 08:30:02;;;;;;;42.63;20.67;;;;;;;7.16;100.00;103376.56;5093411;28;20047;-70
2023/02/13 08:32:27;;;;;;;43.83;19.95;;;;;;;7.18;100.00;103375.88;5090262;28;20020;-71
2023/02/13 08:34:52;;;;;;;45.03;21.33;;;;;;;7.23;100.00;103378.81;5092915;28;20051;-71
2023/02/13 08:37:18;;;;;;;44.20;20.38;;;;;;;7.36;100.00;103373.66;5094178;28;20028;-70
2023/02/13 08:39:43;;;;;;;45.10;20.23;;;;;;;7.37;100.00;103377.19;5091976;28;20051;-70
2023/02/13 08:42:09;;;;;;;48.65;20.70;;;;;;;7.41;100.00;103385.38;5093119;28;20031;-70
2023/02/13 08:44:35;;;;;;;39.25;20.40;;;;;;;7.51;100.00;103391.25;5093995;28;20715;-71
2023/02/13 08:47:02;;;;;;;38.72;20.08;;;;;;;7.51;100.00;103386.91;5096199;28;20028;-70
2023/02/13 08:49:29;;;;;;;41.53;21.50;;;;;;;7.57;100.00;103383.84;5091195;28;20028;-69
2023/02/13 08:51:54;;;;;;;49.63;22.55;;;;;;;7.57;100.00;103389.97;5091306;28;20479;-73
2023/02/13 08:54:19;;;;;;;51.17;22.52;;;;;;;7.53;100.00;103390.56;5091593;28;20031;-71
2023/02/13 08:56:45;;;;;;;50.28;23.95;;;;;;;7.62;100.00;103390.28;5092406;28;20523;-71
2023/02/13 08:59:10;;;;;;;52.88;24.73;;;;;;;7.64;100.00;103385.16;5095300;28;20109;-70
2023/02/13 09:01:35;;;;;;;44.45;23.15;;;;;;;7.80;100.00;103384.50;5084031;28;20028;-72
2023/02/13 09:04:07;;;;;;;49.75;24.05;;;;;;;7.79;100.00;103382.72;5087452;28;20392;-72
2023/02/13 09:06:35;;;;;;;57.60;24.27;;;;;;;7.84;100.00;103376.97;5094727;28;20036;-71
2023/02/13 09:09:05;;;;;;;48.80;22.90;;;;;;;7.75;100.00;103382.47;5092508;28;20064;-71
2023/02/13 09:11:32;;;;;;;52.30;24.27;;;;;;;7.83;100.00;103384.75;5090912;28;20031;-72
2023/02/13 09:13:58;;;;;;;50.03;23.63;;;;;;;7.90;100.00;103386.97;5096325;28;20019;-72
2023/02/13 09:16:23;;;;;;;53.53;23.95;;;;;;;7.94;100.00;103381.13;5092828;28;20471;-72
2023/02/13 09:18:51;;;;;;;51.17;24.00;;;;;;;7.97;100.00;103378.72;5092469;28;20028;-70
2023/02/13 09:21:22;;;;;;;52.75;24.02;;;;;;;8.00;100.00;103378.00;5092800;28;20031;-71
2023/02/13 09:23:48;;;;;;;52.03;22.63;;;;;;;8.02;100.00;103379.94;5092940;28;20381;-72
2023/02/13 09:26:15;;;;;;;60.45;25.85;;;;;;;8.01;100.00;103382.47;5090386;28;20082;-73
2023/02/13 09:28:41;;;;;;;48.30;24.08;;;;;;;8.14;100.00;103386.81;5089085;28;20371;-71
2023/02/13 09:31:10;;;;;;;51.33;24.98;;;;;;;8.17;100.00;103387.94;5083047;28;20058;-72
2023/02/13 09:33:36;;;;;;;49.28;24.60;;;;;;;8.28;100.00;103388.66;5091186;28;20023;-78
2023/02/13 09:36:06;;;;;;;49.47;23.60;;;;;;;8.41;100.00;103393.91;5090847;28;20061;-78
2023/02/13 09:38:32;;;;;;;46.58;24.02;;;;;;;8.49;100.00;103394.47;5091080;28;20070;-78
2023/02/13 09:41:05;;;;;;;52.95;24.52;;;;;;;8.57;100.00;103398.50;5092234;28;20024;-77
2023/02/13 09:43:40;;;;;;;53.47;25.48;;;;;;;8.73;100.00;103391.63;5094185;28;20388;-77
2023/02/13 09:46:28;;;;;;;49.17;24.45;;;;;;;8.97;100.00;103389.69;5095102;28;20027;-77
2023/02/13 09:48:57;;;;;;;45.45;24.02;;;;;;;9.10;100.00;103389.66;5086466;28;20152;-79
2023/02/13 09:51:24;;;;;;;45.28;24.15;;;;;;;9.27;100.00;103389.81;5091313;28;20050;-78
2023/02/13 09:54:00;;;;;;;46.83;23.45;;;;;;;9.24;100.00;103398.41;5089605;28;20031;-77
2023/02/13 09:56:48;;;;;;;48.95;24.67;;;;;;;9.21;100.00;103392.97;5089844;28;20035;-78
2023/02/13 09:59:52;;;;;;;46.33;24.20;;;;;;;9.32;100.00;103384.84;5090386;28;20031;-78
2023/02/13 10:02:35;;;;;;;46.90;23.77;;;;;;;9.35;100.00;103385.06;5092609;28;20036;-79
2023/02/13 10:05:19;;;;;;;46.45;23.05;;;;;;;9.30;100.00;103381.22;5091416;28;20104;-78
2023/02/13 10:08:20;;;;;;;;;;;;;;;9.41;100.00;103381.09;5091226;28;20059;-77
2023/02/13 10:11:00;;;;;;;44.45;24.08;;;;;;;9.55;100.00;103394.16;5083976;28;20015;-78
2023/02/13 10:14:04;;;;;;;42.20;23.65;;;;;;;9.81;100.00;103384.31;5093705;28;20132;-78
2023/02/13 10:16:36;;;;;;;44.40;23.13;;;;;;;9.69;100.00;103377.53;5042630;28;20140;-77
2023/02/13 10:19:12;;;;;;;40.13;21.87;;;;;;;9.91;100.00;103378.81;5051314;28;20337;-77
2023/02/13 10:21:47;;;;;;;48.88;23.80;;;;;;;10.19;100.00;103385.75;5072760;28;20032;-79
2023/02/13 10:24:31;;;;;;;42.38;22.73;;;;;;;10.51;100.00;103376.22;5093851;28;20488;-79
2023/02/13 10:27:00;;;;;;;47.72;24.55;;;;;;;10.67;100.00;103380.63;5094638;28;20431;-80
2023/02/13 10:32:32;;;;;;;42.72;23.20;;;;;;;11.15;100.00;103384.22;5095241;28;20038;-78
2023/02/13 10:35:00;;;;;;;45.45;23.50;;;;;;;11.24;100.00;103374.16;5094534;28;20044;-77
2023/02/13 10:37:26;;;;;;;39.05;21.90;;;;;;;11.43;100.00;103377.81;5095208;28;20031;-79
2023/02/13 10:39:53;;;;;;;46.35;24.38;;;;;;;11.52;100.00;103367.75;5095715;28;20024;-80
2023/02/13 10:42:27;;;;;;;40.67;23.73;;;;;;;11.58;100.00;103383.00;5094583;28;20016;-79
2023/02/13 10:45:17;;;;;;;42.55;24.85;;;;;;;11.82;100.00;103370.19;5090536;28;20039;-79
2023/02/13 10:48:01;;;;;;;47.75;23.67;;;;;;;12.34;100.00;103376.34;5084988;28;20031;-79
2023/02/13 10:50:32;;;;;;;;;;;;;;;12.62;92.92;103374.25;5092384;28;20028;-80
2023/02/13 10:53:18;;;;;;;46.00;24.50;;;;;;;12.71;93.94;103375.50;5093109;28;19912;-79
2023/02/13 10:56:09;;;;;;;49.55;25.60;;;;;;;12.75;92.21;103364.25;5085461;28;20357;-78
2023/02/13 10:58:44;;;;;;;43.17;24.40;;;;;;;13.20;90.20;103367.28;5090391;28;20046;-78
2023/02/13 11:01:47;;;;;;;47.85;25.27;;;;;;;13.44;85.17;103367.56;5092795;28;20028;-79
2023/02/13 11:04:17;;;;;;;47.70;25.77;;;;;;;13.28;86.39;103370.25;5093434;28;20475;-78
2023/02/13 11:06:54;;;;;;;47.75;25.63;;;;;;;13.37;86.12;103367.19;5090304;28;20035;-79
2023/02/13 11:09:20;;;;;;;43.72;25.90;;;;;;;13.31;91.64;103370.44;5091941;28;20024;-79
2023/02/13 11:11:46;;;;;;;43.53;22.73;;;;;;;13.99;81.52;103368.16;5085663;28;20035;-79
2023/02/13 11:14:13;;;;;;;45.10;23.83;;;;;;;14.04;79.38;103361.34;5080569;28;20453;-78
2023/02/13 11:17:01;;;;;;;46.47;25.85;;;;;;;13.96;77.54;103355.69;5090810;28;20363;-79
2023/02/13 11:19:50;;;;;;;45.03;25.35;;;;;;;14.07;75.42;103355.28;5086995;28;20042;-80
2023/02/13 11:22:33;;;;;;;43.70;23.60;;;;;;;14.09;75.99;103353.56;5092582;28;20662;-78
2023/02/13 11:25:06;;;;;;;50.00;26.10;;;;;;;14.04;75.90;103345.44;5087122;28;20028;-79
2023/02/13 11:27:37;;;;;;;42.30;23.40;;;;;;;14.43;77.13;103344.38;5089111;28;20031;-80
2023/02/13 11:30:30;;;;;;;43.63;24.80;;;;;;;14.34;74.04;103340.53;5092859;28;20032;-80
2023/02/13 11:33:05;;;;;;;47.40;24.50;;;;;;;14.39;71.89;103337.16;5093140;28;20027;-81
2023/02/13 11:35:35;;;;;;;43.72;24.13;;;;;;;14.79;72.55;103329.09;5094180;28;20024;-80
2023/02/13 11:38:19;;;;;;;44.38;24.98;;;;;;;14.83;71.32;103324.81;5092792;28;20107;-78
2023/02/13 11:40:48;;;;;;;45.53;25.90;;;;;;;14.37;77.31;103328.25;5092664;28;20090;-79
2023/02/13 11:43:27;;;;;;;43.58;24.33;;;;;;;14.82;72.13;103326.53;5094040;28;20498;-80
2023/02/13 11:46:11;;;;;;;41.53;23.48;;;;;;;15.01;70.90;103330.81;5093358;28;20062;-76
2023/02/13 11:48:36;;;;;;;;;;;;;;;15.66;68.71;103329.63;5089006;28;20491;-79
2023/02/13 11:51:02;;;;;;;44.67;25.37;;;;;;;16.11;63.49;103329.44;5095060;28;19934;-80
2023/02/13 11:53:37;;;;;;;43.70;24.75;;;;;;;15.74;65.76;103328.16;5093533;28;20170;-78
2023/02/13 11:56:07;;;;;;;42.88;25.48;;;;;;;16.05;64.30;103326.59;5092426;28;20039;-79
2023/02/13 11:58:33;;;;;;;42.70;24.77;;;;;;;16.80;57.92;103319.22;5093036;28;20024;-77
2023/02/13 12:01:19;;;;;;;40.55;23.90;;;;;;;16.99;57.29;103323.38;5093399;28;20533;-78
2023/02/13 12:04:06;;;;;;;44.40;25.40;;;;;;;15.87;62.83;103325.94;5090255;28;20028;-79
2023/02/13 12:06:38;;;;;;;39.17;23.30;;;;;;;16.84;60.84;103327.31;5090323;28;20120;-78
2023/02/13 12:09:09;;;;;;;39.58;23.23;;;;;;;17.25;56.45;103318.81;5090741;28;20035;-78
2023/02/13 12:11:44;;;;;;;43.70;24.75;;;;;;;17.03;57.36;103319.94;5089060;28;20012;-79